sensor_id;sensor_type;location;lat;lon;timestamp;P1;durP1;ratioP1;P2;durP2;ratioP2
10643;SDS011;5370;50.132;8.626;2023-05-10T00:01:05;0.90;;;0.90;;
10643;SDS011;5370;50.132;8.626;2023-05-10T00:03:31;1.45;;;1.35;;
10643;SDS011;5370;50.132;8.626;2023-05-10T00:05:57;1.40;;;1.27;;
10643;SDS011;5370;50.132;8.626;2023-05-10T00:08:22;2.13;;;1.50;;
10643;SDS011;5370;50.132;8.626;2023-05-10T00:10:48;2.35;;;1.20;;
10643;SDS011;5370;50.132;8.626;2023-05-10T00:13:14;2.00;;;1.00;;
10643;SDS011;5370;50.132;8.626;2023-05-10T00:15:39;2.47;;;1.35;;
10643;SDS011;5370;50.132;8.626;2023-05-10T00:18:05;2.07;;;1.40;;
10643;SDS011;5370;50.132;8.626;2023-05-10T00:20:30;1.20;;;0.90;;
10643;SDS011;5370;50.132;8.626;2023-05-10T00:22:56;1.70;;;1.60;;
10643;SDS011;5370;50.132;8.626;2023-05-10T00:25:21;1.30;;;1.20;;
10643;SDS011;5370;50.132;8.626;2023-05-10T00:27:47;1.83;;;1.67;;
10643;SDS011;5370;50.132;8.626;2023-05-10T00:30:13;2.83;;;1.30;;
10643;SDS011;5370;50.132;8.626;2023-05-10T00:32:38;5.40;;;1.33;;
10643;SDS011;5370;50.132;8.626;2023-05-10T00:35:04;1.37;;;1.27;;
10643;SDS011;5370;50.132;8.626;2023-05-10T00:37:30;1.50;;;1.23;;
10643;SDS011;5370;50.132;8.626;2023-05-10T00:39:55;4.37;;;2.00;;
10643;SDS011;5370;50.132;8.626;2023-05-10T00:42:21;1.53;;;1.30;;
10643;SDS011;5370;50.132;8.626;2023-05-10T00:44:47;1.63;;;1.30;;
10643;SDS011;5370;50.132;8.626;2023-05-10T00:47:12;2.23;;;1.30;;
10643;SDS011;5370;50.132;8.626;2023-05-10T00:49:38;2.77;;;1.60;;
10643;SDS011;5370;50.132;8.626;2023-05-10T00:52:05;2.87;;;1.50;;
10643;SDS011;5370;50.132;8.626;2023-05-10T00:54:31;2.20;;;1.07;;
10643;SDS011;5370;50.132;8.626;2023-05-10T00:56:56;1.40;;;1.30;;
10643;SDS011;5370;50.132;8.626;2023-05-10T00:59:23;2.03;;;1.20;;
10643;SDS011;5370;50.132;8.626;2023-05-10T01:01:49;1.80;;;1.23;;
10643;SDS011;5370;50.132;8.626;2023-05-10T01:04:16;1.40;;;1.23;;
10643;SDS011;5370;50.132;8.626;2023-05-10T01:06:42;3.27;;;1.37;;
10643;SDS011;5370;50.132;8.626;2023-05-10T01:09:08;1.80;;;1.40;;
10643;SDS011;5370;50.132;8.626;2023-05-10T01:11:37;2.40;;;1.03;;
10643;SDS011;5370;50.132;8.626;2023-05-10T01:14:03;1.20;;;1.10;;
10643;SDS011;5370;50.132;8.626;2023-05-10T01:16:32;1.53;;;1.00;;
10643;SDS011;5370;50.132;8.626;2023-05-10T01:19:03;1.63;;;1.50;;
10643;SDS011;5370;50.132;8.626;2023-05-10T01:33:10;6.63;;;1.27;;
10643;SDS011;5370;50.132;8.626;2023-05-10T01:35:51;0.97;;;0.70;;
10643;SDS011;5370;50.132;8.626;2023-05-10T01:38:29;1.23;;;1.00;;
10643;SDS011;5370;50.132;8.626;2023-05-10T01:41:12;1.00;;;1.00;;
10643;SDS011;5370;50.132;8.626;2023-05-10T01:46:33;3.20;;;0.90;;
10643;SDS011;5370;50.132;8.626;2023-05-10T01:49:07;1.03;;;0.97;;
10643;SDS011;5370;50.132;8.626;2023-05-10T01:51:39;2.83;;;1.00;;
10643;SDS011;5370;50.132;8.626;2023-05-10T01:54:11;2.47;;;0.80;;
10643;SDS011;5370;50.132;8.626;2023-05-10T01:56:39;4.70;;;1.23;;
10643;SDS011;5370;50.132;8.626;2023-05-10T01:59:08;1.13;;;1.00;;
10643;SDS011;5370;50.132;8.626;2023-05-10T02:01:40;1.23;;;0.80;;
10643;SDS011;5370;50.132;8.626;2023-05-10T02:04:07;4.00;;;0.93;;
10643;SDS011;5370;50.132;8.626;2023-05-10T02:06:34;2.63;;;1.07;;
10643;SDS011;5370;50.132;8.626;2023-05-10T02:09:01;0.87;;;0.80;;
10643;SDS011;5370;50.132;8.626;2023-05-10T02:11:28;2.07;;;0.77;;
10643;SDS011;5370;50.132;8.626;2023-05-10T02:13:54;1.27;;;0.83;;
10643;SDS011;5370;50.132;8.626;2023-05-10T02:16:21;1.10;;;0.80;;
10643;SDS011;5370;50.132;8.626;2023-05-10T02:18:51;2.67;;;1.20;;
10643;SDS011;5370;50.132;8.626;2023-05-10T02:21:19;2.30;;;1.10;;
10643;SDS011;5370;50.132;8.626;2023-05-10T02:23:46;5.60;;;1.00;;
10643;SDS011;5370;50.132;8.626;2023-05-10T02:26:15;2.13;;;0.90;;
10643;SDS011;5370;50.132;8.626;2023-05-10T02:28:41;2.40;;;1.20;;
10643;SDS011;5370;50.132;8.626;2023-05-10T02:31:08;1.73;;;1.10;;
10643;SDS011;5370;50.132;8.626;2023-05-10T02:33:35;2.90;;;1.13;;
10643;SDS011;5370;50.132;8.626;2023-05-10T02:36:03;2.20;;;1.20;;
10643;SDS011;5370;50.132;8.626;2023-05-10T02:38:30;2.77;;;1.10;;
10643;SDS011;5370;50.132;8.626;2023-05-10T02:40:57;2.53;;;1.13;;
10643;SDS011;5370;50.132;8.626;2023-05-10T02:43:24;6.53;;;1.00;;
10643;SDS011;5370;50.132;8.626;2023-05-10T02:45:51;1.30;;;1.20;;
10643;SDS011;5370;50.132;8.626;2023-05-10T02:48:16;1.27;;;1.00;;
10643;SDS011;5370;50.132;8.626;2023-05-10T02:50:43;2.50;;;0.90;;
10643;SDS011;5370;50.132;8.626;2023-05-10T02:53:10;5.33;;;1.20;;
10643;SDS011;5370;50.132;8.626;2023-05-10T02:55:40;3.23;;;0.90;;
10643;SDS011;5370;50.132;8.626;2023-05-10T02:58:08;3.37;;;1.20;;
10643;SDS011;5370;50.132;8.626;2023-05-10T03:00:34;2.00;;;1.00;;
10643;SDS011;5370;50.132;8.626;2023-05-10T03:03:01;1.83;;;1.03;;
10643;SDS011;5370;50.132;8.626;2023-05-10T03:05:27;2.13;;;1.37;;
10643;SDS011;5370;50.132;8.626;2023-05-10T03:07:52;4.23;;;1.60;;
10643;SDS011;5370;50.132;8.626;2023-05-10T03:10:19;1.47;;;1.10;;
10643;SDS011;5370;50.132;8.626;2023-05-10T03:18:40;1.10;;;1.00;;
10643;SDS011;5370;50.132;8.626;2023-05-10T03:21:20;4.90;;;1.23;;
10643;SDS011;5370;50.132;8.626;2023-05-10T03:23:51;1.60;;;1.50;;
10643;SDS011;5370;50.132;8.626;2023-05-10T03:26:25;1.93;;;1.23;;
10643;SDS011;5370;50.132;8.626;2023-05-10T03:28:52;1.60;;;1.47;;
10643;SDS011;5370;50.132;8.626;2023-05-10T03:31:19;2.10;;;1.43;;
10643;SDS011;5370;50.132;8.626;2023-05-10T03:33:45;1.50;;;1.40;;
10643;SDS011;5370;50.132;8.626;2023-05-10T03:36:12;2.60;;;1.10;;
10643;SDS011;5370;50.132;8.626;2023-05-10T03:38:37;4.93;;;1.30;;
10643;SDS011;5370;50.132;8.626;2023-05-10T03:41:03;2.73;;;1.77;;
10643;SDS011;5370;50.132;8.626;2023-05-10T03:43:28;3.73;;;1.40;;
10643;SDS011;5370;50.132;8.626;2023-05-10T03:45:54;4.53;;;1.40;;
10643;SDS011;5370;50.132;8.626;2023-05-10T03:48:19;1.20;;;1.20;;
10643;SDS011;5370;50.132;8.626;2023-05-10T03:50:45;1.20;;;1.20;;
10643;SDS011;5370;50.132;8.626;2023-05-10T03:53:10;4.10;;;1.23;;
10643;SDS011;5370;50.132;8.626;2023-05-10T03:55:37;2.10;;;1.20;;
10643;SDS011;5370;50.132;8.626;2023-05-10T03:58:02;2.77;;;1.30;;
10643;SDS011;5370;50.132;8.626;2023-05-10T04:00:28;3.80;;;1.40;;
10643;SDS011;5370;50.132;8.626;2023-05-10T04:02:53;1.53;;;1.43;;
10643;SDS011;5370;50.132;8.626;2023-05-10T04:05:19;3.23;;;1.87;;
10643;SDS011;5370;50.132;8.626;2023-05-10T04:07:44;2.13;;;1.50;;
10643;SDS011;5370;50.132;8.626;2023-05-10T04:10:12;2.10;;;1.73;;
10643;SDS011;5370;50.132;8.626;2023-05-10T04:12:37;2.03;;;1.33;;
10643;SDS011;5370;50.132;8.626;2023-05-10T04:15:03;1.40;;;1.30;;
10643;SDS011;5370;50.132;8.626;2023-05-10T04:17:29;3.00;;;1.70;;
10643;SDS011;5370;50.132;8.626;2023-05-10T04:19:54;3.43;;;1.63;;
10643;SDS011;5370;50.132;8.626;2023-05-10T04:22:21;3.37;;;2.07;;
10643;SDS011;5370;50.132;8.626;2023-05-10T04:24:46;1.67;;;1.57;;
10643;SDS011;5370;50.132;8.626;2023-05-10T04:27:12;1.97;;;1.87;;
10643;SDS011;5370;50.132;8.626;2023-05-10T04:29:37;6.17;;;2.17;;
10643;SDS011;5370;50.132;8.626;2023-05-10T04:32:03;4.60;;;1.80;;
10643;SDS011;5370;50.132;8.626;2023-05-10T04:34:29;1.97;;;1.77;;
10643;SDS011;5370;50.132;8.626;2023-05-10T04:36:54;4.07;;;1.87;;
10643;SDS011;5370;50.132;8.626;2023-05-10T04:39:20;7.90;;;1.93;;
10643;SDS011;5370;50.132;8.626;2023-05-10T04:41:45;1.93;;;1.60;;
10643;SDS011;5370;50.132;8.626;2023-05-10T04:44:11;2.63;;;1.30;;
10643;SDS011;5370;50.132;8.626;2023-05-10T04:46:36;3.87;;;2.10;;
10643;SDS011;5370;50.132;8.626;2023-05-10T04:49:02;2.07;;;1.53;;
10643;SDS011;5370;50.132;8.626;2023-05-10T04:51:27;1.63;;;1.53;;
10643;SDS011;5370;50.132;8.626;2023-05-10T04:53:53;2.93;;;1.50;;
10643;SDS011;5370;50.132;8.626;2023-05-10T04:56:18;3.93;;;1.80;;
10643;SDS011;5370;50.132;8.626;2023-05-10T04:58:44;2.23;;;1.70;;
10643;SDS011;5370;50.132;8.626;2023-05-10T05:01:10;2.87;;;2.00;;
10643;SDS011;5370;50.132;8.626;2023-05-10T05:03:36;3.47;;;1.53;;
10643;SDS011;5370;50.132;8.626;2023-05-10T05:06:02;3.17;;;1.70;;
10643;SDS011;5370;50.132;8.626;2023-05-10T05:08:28;4.00;;;1.70;;
10643;SDS011;5370;50.132;8.626;2023-05-10T05:10:53;2.57;;;1.63;;
10643;SDS011;5370;50.132;8.626;2023-05-10T05:13:19;2.97;;;1.60;;
10643;SDS011;5370;50.132;8.626;2023-05-10T05:15:45;3.17;;;2.67;;
10643;SDS011;5370;50.132;8.626;2023-05-10T05:18:10;2.67;;;1.83;;
10643;SDS011;5370;50.132;8.626;2023-05-10T05:20:36;2.57;;;1.43;;
10643;SDS011;5370;50.132;8.626;2023-05-10T05:23:01;5.40;;;1.77;;
10643;SDS011;5370;50.132;8.626;2023-05-10T05:25:27;2.20;;;1.80;;
10643;SDS011;5370;50.132;8.626;2023-05-10T05:27:53;5.43;;;1.83;;
10643;SDS011;5370;50.132;8.626;2023-05-10T05:30:18;3.65;;;1.90;;
10643;SDS011;5370;50.132;8.626;2023-05-10T05:32:44;4.27;;;1.63;;
10643;SDS011;5370;50.132;8.626;2023-05-10T05:35:09;2.73;;;1.80;;
10643;SDS011;5370;50.132;8.626;2023-05-10T05:37:35;3.00;;;2.13;;
10643;SDS011;5370;50.132;8.626;2023-05-10T05:40:02;2.90;;;1.95;;
10643;SDS011;5370;50.132;8.626;2023-05-10T05:42:28;3.87;;;2.20;;
10643;SDS011;5370;50.132;8.626;2023-05-10T05:44:53;3.10;;;2.80;;
10643;SDS011;5370;50.132;8.626;2023-05-10T05:47:19;3.50;;;2.60;;
10643;SDS011;5370;50.132;8.626;2023-05-10T05:49:44;2.80;;;2.10;;
10643;SDS011;5370;50.132;8.626;2023-05-10T05:52:10;2.50;;;2.28;;
10643;SDS011;5370;50.132;8.626;2023-05-10T05:54:36;3.75;;;2.38;;
10643;SDS011;5370;50.132;8.626;2023-05-10T05:57:02;4.75;;;2.67;;
10643;SDS011;5370;50.132;8.626;2023-05-10T05:59:27;5.93;;;2.50;;
10643;SDS011;5370;50.132;8.626;2023-05-10T06:01:53;3.72;;;2.55;;
10643;SDS011;5370;50.132;8.626;2023-05-10T06:04:19;3.50;;;2.50;;
10643;SDS011;5370;50.132;8.626;2023-05-10T06:06:45;3.42;;;2.65;;
10643;SDS011;5370;50.132;8.626;2023-05-10T06:09:10;6.30;;;2.50;;
10643;SDS011;5370;50.132;8.626;2023-05-10T06:11:36;2.60;;;2.33;;
10643;SDS011;5370;50.132;8.626;2023-05-10T06:14:02;7.75;;;2.30;;
10643;SDS011;5370;50.132;8.626;2023-05-10T06:16:29;3.88;;;2.00;;
10643;SDS011;5370;50.132;8.626;2023-05-10T06:18:55;4.78;;;2.00;;
10643;SDS011;5370;50.132;8.626;2023-05-10T06:21:21;3.78;;;2.30;;
10643;SDS011;5370;50.132;8.626;2023-05-10T06:23:46;6.55;;;2.17;;
10643;SDS011;5370;50.132;8.626;2023-05-10T06:26:12;5.38;;;2.53;;
10643;SDS011;5370;50.132;8.626;2023-05-10T06:28:38;14.43;;;9.77;;
10643;SDS011;5370;50.132;8.626;2023-05-10T06:31:05;3.95;;;2.65;;
10643;SDS011;5370;50.132;8.626;2023-05-10T06:33:31;2.33;;;1.92;;
10643;SDS011;5370;50.132;8.626;2023-05-10T06:35:57;5.60;;;2.35;;
10643;SDS011;5370;50.132;8.626;2023-05-10T06:38:22;3.55;;;2.15;;
10643;SDS011;5370;50.132;8.626;2023-05-10T06:40:48;4.97;;;2.00;;
10643;SDS011;5370;50.132;8.626;2023-05-10T06:43:14;4.65;;;2.67;;
10643;SDS011;5370;50.132;8.626;2023-05-10T06:45:39;4.75;;;2.50;;
10643;SDS011;5370;50.132;8.626;2023-05-10T06:48:05;6.22;;;2.53;;
10643;SDS011;5370;50.132;8.626;2023-05-10T06:50:31;4.95;;;2.30;;
10643;SDS011;5370;50.132;8.626;2023-05-10T06:52:57;3.40;;;2.53;;
10643;SDS011;5370;50.132;8.626;2023-05-10T06:55:22;5.40;;;2.50;;
10643;SDS011;5370;50.132;8.626;2023-05-10T06:57:48;2.70;;;2.28;;
10643;SDS011;5370;50.132;8.626;2023-05-10T07:00:15;7.30;;;2.65;;
10643;SDS011;5370;50.132;8.626;2023-05-10T07:02:41;8.35;;;2.50;;
10643;SDS011;5370;50.132;8.626;2023-05-10T07:05:07;4.55;;;2.72;;
10643;SDS011;5370;50.132;8.626;2023-05-10T07:07:33;5.32;;;2.72;;
10643;SDS011;5370;50.132;8.626;2023-05-10T07:09:59;4.13;;;2.58;;
10643;SDS011;5370;50.132;8.626;2023-05-10T07:12:25;4.45;;;2.45;;
10643;SDS011;5370;50.132;8.626;2023-05-10T07:14:51;4.38;;;2.53;;
10643;SDS011;5370;50.132;8.626;2023-05-10T07:17:16;5.97;;;2.53;;
10643;SDS011;5370;50.132;8.626;2023-05-10T07:19:42;4.38;;;2.55;;
10643;SDS011;5370;50.132;8.626;2023-05-10T07:22:08;7.60;;;2.80;;
10643;SDS011;5370;50.132;8.626;2023-05-10T07:24:33;9.60;;;2.40;;
10643;SDS011;5370;50.132;8.626;2023-05-10T07:26:59;8.05;;;2.25;;
10643;SDS011;5370;50.132;8.626;2023-05-10T07:29:25;5.57;;;2.80;;
10643;SDS011;5370;50.132;8.626;2023-05-10T07:31:50;4.57;;;2.33;;
10643;SDS011;5370;50.132;8.626;2023-05-10T07:34:16;4.15;;;2.38;;
10643;SDS011;5370;50.132;8.626;2023-05-10T07:36:41;6.38;;;2.55;;
10643;SDS011;5370;50.132;8.626;2023-05-10T07:39:07;5.57;;;2.80;;
10643;SDS011;5370;50.132;8.626;2023-05-10T07:41:32;4.78;;;2.22;;
10643;SDS011;5370;50.132;8.626;2023-05-10T07:43:58;3.30;;;1.98;;
10643;SDS011;5370;50.132;8.626;2023-05-10T07:46:24;12.45;;;2.92;;
10643;SDS011;5370;50.132;8.626;2023-05-10T07:48:49;2.00;;;1.90;;
10643;SDS011;5370;50.132;8.626;2023-05-10T07:51:15;4.20;;;2.33;;
10643;SDS011;5370;50.132;8.626;2023-05-10T07:53:40;6.15;;;2.60;;
10643;SDS011;5370;50.132;8.626;2023-05-10T07:58:57;4.43;;;2.38;;
10643;SDS011;5370;50.132;8.626;2023-05-10T08:01:23;5.93;;;2.83;;
10643;SDS011;5370;50.132;8.626;2023-05-10T08:03:49;3.15;;;2.17;;
10643;SDS011;5370;50.132;8.626;2023-05-10T08:06:16;6.05;;;2.65;;
10643;SDS011;5370;50.132;8.626;2023-05-10T08:08:43;7.40;;;2.15;;
10643;SDS011;5370;50.132;8.626;2023-05-10T08:11:10;9.38;;;2.85;;
10643;SDS011;5370;50.132;8.626;2023-05-10T08:13:36;3.85;;;2.00;;
10643;SDS011;5370;50.132;8.626;2023-05-10T08:16:01;3.78;;;2.35;;
10643;SDS011;5370;50.132;8.626;2023-05-10T08:18:27;5.97;;;3.00;;
10643;SDS011;5370;50.132;8.626;2023-05-10T08:20:53;7.22;;;2.13;;
10643;SDS011;5370;50.132;8.626;2023-05-10T08:23:18;5.50;;;1.90;;
10643;SDS011;5370;50.132;8.626;2023-05-10T08:25:44;5.55;;;1.95;;
10643;SDS011;5370;50.132;8.626;2023-05-10T08:28:09;3.50;;;1.58;;
10643;SDS011;5370;50.132;8.626;2023-05-10T08:30:35;3.60;;;1.88;;
10643;SDS011;5370;50.132;8.626;2023-05-10T08:33:00;4.32;;;2.10;;
10643;SDS011;5370;50.132;8.626;2023-05-10T08:35:26;3.55;;;2.20;;
10643;SDS011;5370;50.132;8.626;2023-05-10T08:37:51;4.45;;;1.70;;
10643;SDS011;5370;50.132;8.626;2023-05-10T08:40:18;3.75;;;1.98;;
10643;SDS011;5370;50.132;8.626;2023-05-10T08:42:47;5.20;;;1.73;;
10643;SDS011;5370;50.132;8.626;2023-05-10T08:45:20;7.32;;;2.88;;
10643;SDS011;5370;50.132;8.626;2023-05-10T08:47:48;3.42;;;1.60;;
10643;SDS011;5370;50.132;8.626;2023-05-10T08:50:14;2.42;;;1.73;;
10643;SDS011;5370;50.132;8.626;2023-05-10T08:52:41;4.25;;;1.63;;
10643;SDS011;5370;50.132;8.626;2023-05-10T08:55:06;4.60;;;1.60;;
10643;SDS011;5370;50.132;8.626;2023-05-10T08:57:32;3.83;;;1.63;;
10643;SDS011;5370;50.132;8.626;2023-05-10T08:59:58;6.93;;;1.75;;
10643;SDS011;5370;50.132;8.626;2023-05-10T09:02:26;4.13;;;1.40;;
10643;SDS011;5370;50.132;8.626;2023-05-10T09:04:51;2.95;;;1.35;;
10643;SDS011;5370;50.132;8.626;2023-05-10T09:07:17;5.07;;;2.63;;
10643;SDS011;5370;50.132;8.626;2023-05-10T09:09:43;5.05;;;1.70;;
10643;SDS011;5370;50.132;8.626;2023-05-10T09:12:10;3.47;;;2.00;;
10643;SDS011;5370;50.132;8.626;2023-05-10T09:14:37;4.55;;;1.88;;
10643;SDS011;5370;50.132;8.626;2023-05-10T09:17:03;4.50;;;2.60;;
10643;SDS011;5370;50.132;8.626;2023-05-10T09:19:29;4.57;;;2.00;;
10643;SDS011;5370;50.132;8.626;2023-05-10T09:21:55;4.03;;;1.90;;
10643;SDS011;5370;50.132;8.626;2023-05-10T09:24:24;1.92;;;1.45;;
10643;SDS011;5370;50.132;8.626;2023-05-10T09:26:51;3.90;;;1.85;;
10643;SDS011;5370;50.132;8.626;2023-05-10T09:29:17;3.78;;;1.65;;
10643;SDS011;5370;50.132;8.626;2023-05-10T09:31:44;2.88;;;1.77;;
10643;SDS011;5370;50.132;8.626;2023-05-10T09:34:19;1.73;;;1.30;;
10643;SDS011;5370;50.132;8.626;2023-05-10T09:36:54;3.58;;;1.25;;
10643;SDS011;5370;50.132;8.626;2023-05-10T09:39:28;2.35;;;1.10;;
10643;SDS011;5370;50.132;8.626;2023-05-10T09:41:55;2.05;;;1.10;;
10643;SDS011;5370;50.132;8.626;2023-05-10T09:44:21;2.22;;;1.10;;
10643;SDS011;5370;50.132;8.626;2023-05-10T09:46:50;1.42;;;0.93;;
10643;SDS011;5370;50.132;8.626;2023-05-10T09:49:17;2.80;;;1.50;;
10643;SDS011;5370;50.132;8.626;2023-05-10T09:51:43;1.20;;;1.10;;
10643;SDS011;5370;50.132;8.626;2023-05-10T09:54:10;2.17;;;1.02;;
10643;SDS011;5370;50.132;8.626;2023-05-10T09:56:40;1.05;;;0.90;;
10643;SDS011;5370;50.132;8.626;2023-05-10T09:59:10;3.30;;;1.15;;
10643;SDS011;5370;50.132;8.626;2023-05-10T10:01:37;1.15;;;1.05;;
10643;SDS011;5370;50.132;8.626;2023-05-10T10:04:06;5.53;;;1.17;;
10643;SDS011;5370;50.132;8.626;2023-05-10T10:06:39;2.42;;;0.82;;
10643;SDS011;5370;50.132;8.626;2023-05-10T10:09:05;2.85;;;1.00;;
10643;SDS011;5370;50.132;8.626;2023-05-10T10:11:33;3.05;;;1.15;;
10643;SDS011;5370;50.132;8.626;2023-05-10T10:13:59;2.15;;;1.40;;
10643;SDS011;5370;50.132;8.626;2023-05-10T10:16:27;3.67;;;1.52;;
10643;SDS011;5370;50.132;8.626;2023-05-10T10:18:56;1.75;;;1.50;;
10643;SDS011;5370;50.132;8.626;2023-05-10T10:21:23;3.33;;;1.45;;
10643;SDS011;5370;50.132;8.626;2023-05-10T10:23:49;5.20;;;1.70;;
10643;SDS011;5370;50.132;8.626;2023-05-10T10:26:16;3.08;;;1.70;;
10643;SDS011;5370;50.132;8.626;2023-05-10T10:31:47;1.75;;;1.58;;
10643;SDS011;5370;50.132;8.626;2023-05-10T10:34:32;2.95;;;1.65;;
10643;SDS011;5370;50.132;8.626;2023-05-10T10:37:03;4.57;;;2.00;;
10643;SDS011;5370;50.132;8.626;2023-05-10T10:39:30;3.25;;;1.60;;
10643;SDS011;5370;50.132;8.626;2023-05-10T10:41:56;1.50;;;0.88;;
10643;SDS011;5370;50.132;8.626;2023-05-10T10:49:37;2.03;;;0.80;;
10643;SDS011;5370;50.132;8.626;2023-05-10T10:52:23;3.33;;;1.08;;
10643;SDS011;5370;50.132;8.626;2023-05-10T10:54:56;2.60;;;1.02;;
10643;SDS011;5370;50.132;8.626;2023-05-10T10:57:25;1.55;;;0.68;;
10643;SDS011;5370;50.132;8.626;2023-05-10T11:02:50;1.60;;;0.80;;
10643;SDS011;5370;50.132;8.626;2023-05-10T11:05:24;2.17;;;0.93;;
10643;SDS011;5370;50.132;8.626;2023-05-10T11:08:10;1.52;;;0.70;;
10643;SDS011;5370;50.132;8.626;2023-05-10T11:10:38;3.92;;;2.08;;
10643;SDS011;5370;50.132;8.626;2023-05-10T11:13:05;3.00;;;0.75;;
10643;SDS011;5370;50.132;8.626;2023-05-10T11:15:33;4.07;;;1.17;;
10643;SDS011;5370;50.132;8.626;2023-05-10T11:18:00;1.67;;;0.60;;
10643;SDS011;5370;50.132;8.626;2023-05-10T11:20:58;0.93;;;0.60;;
10643;SDS011;5370;50.132;8.626;2023-05-10T11:23:31;0.70;;;0.70;;
10643;SDS011;5370;50.132;8.626;2023-05-10T11:26:12;2.53;;;0.60;;
10643;SDS011;5370;50.132;8.626;2023-05-10T11:28:44;1.77;;;0.63;;
10643;SDS011;5370;50.132;8.626;2023-05-10T11:31:14;0.60;;;0.60;;
10643;SDS011;5370;50.132;8.626;2023-05-10T11:33:44;3.42;;;1.00;;
10643;SDS011;5370;50.132;8.626;2023-05-10T11:36:11;2.70;;;0.70;;
10643;SDS011;5370;50.132;8.626;2023-05-10T11:38:39;1.08;;;0.70;;
10643;SDS011;5370;50.132;8.626;2023-05-10T11:41:04;1.90;;;0.70;;
10643;SDS011;5370;50.132;8.626;2023-05-10T11:43:30;0.60;;;0.60;;
10643;SDS011;5370;50.132;8.626;2023-05-10T11:45:56;1.52;;;0.60;;
10643;SDS011;5370;50.132;8.626;2023-05-10T11:48:21;0.68;;;0.55;;
10643;SDS011;5370;50.132;8.626;2023-05-10T11:50:49;1.73;;;0.38;;
10643;SDS011;5370;50.132;8.626;2023-05-10T11:53:15;2.22;;;0.70;;
10643;SDS011;5370;50.132;8.626;2023-05-10T11:55:40;6.28;;;0.93;;
10643;SDS011;5370;50.132;8.626;2023-05-10T11:58:06;3.22;;;0.75;;
10643;SDS011;5370;50.132;8.626;2023-05-10T12:00:31;1.38;;;0.65;;
10643;SDS011;5370;50.132;8.626;2023-05-10T12:02:57;1.25;;;0.70;;
10643;SDS011;5370;50.132;8.626;2023-05-10T12:05:23;2.63;;;0.88;;
10643;SDS011;5370;50.132;8.626;2023-05-10T12:07:49;4.72;;;1.52;;
10643;SDS011;5370;50.132;8.626;2023-05-10T12:10:14;3.75;;;0.85;;
10643;SDS011;5370;50.132;8.626;2023-05-10T12:12:42;3.17;;;0.98;;
10643;SDS011;5370;50.132;8.626;2023-05-10T12:15:19;3.03;;;0.85;;
10643;SDS011;5370;50.132;8.626;2023-05-10T12:17:47;3.95;;;1.05;;
10643;SDS011;5370;50.132;8.626;2023-05-10T12:20:19;1.15;;;0.60;;
10643;SDS011;5370;50.132;8.626;2023-05-10T12:22:47;1.25;;;0.80;;
10643;SDS011;5370;50.132;8.626;2023-05-10T12:25:22;2.08;;;0.95;;
10643;SDS011;5370;50.132;8.626;2023-05-10T12:27:50;5.65;;;0.98;;
10643;SDS011;5370;50.132;8.626;2023-05-10T12:30:50;3.95;;;1.40;;
10643;SDS011;5370;50.132;8.626;2023-05-10T12:33:12;0.77;;;0.57;;
10643;SDS011;5370;50.132;8.626;2023-05-10T12:35:44;3.78;;;1.00;;
10643;SDS011;5370;50.132;8.626;2023-05-10T12:40:55;1.67;;;0.50;;
10643;SDS011;5370;50.132;8.626;2023-05-10T12:43:21;2.00;;;0.82;;
10643;SDS011;5370;50.132;8.626;2023-05-10T12:45:47;1.15;;;1.05;;
10643;SDS011;5370;50.132;8.626;2023-05-10T12:48:14;2.45;;;1.15;;
10643;SDS011;5370;50.132;8.626;2023-05-10T12:50:40;1.80;;;0.65;;
10643;SDS011;5370;50.132;8.626;2023-05-10T12:53:05;1.55;;;0.68;;
10643;SDS011;5370;50.132;8.626;2023-05-10T12:55:31;2.83;;;0.65;;
10643;SDS011;5370;50.132;8.626;2023-05-10T12:57:56;2.15;;;0.55;;
10643;SDS011;5370;50.132;8.626;2023-05-10T13:00:22;4.88;;;0.70;;
10643;SDS011;5370;50.132;8.626;2023-05-10T13:02:47;8.60;;;0.63;;
10643;SDS011;5370;50.132;8.626;2023-05-10T13:05:13;2.15;;;0.50;;
10643;SDS011;5370;50.132;8.626;2023-05-10T13:07:38;1.50;;;0.90;;
10643;SDS011;5370;50.132;8.626;2023-05-10T13:10:05;3.10;;;0.65;;
10643;SDS011;5370;50.132;8.626;2023-05-10T13:12:31;0.40;;;0.40;;
10643;SDS011;5370;50.132;8.626;2023-05-10T13:14:56;3.63;;;0.70;;
10643;SDS011;5370;50.132;8.626;2023-05-10T13:17:22;0.90;;;0.40;;
10643;SDS011;5370;50.132;8.626;2023-05-10T13:19:48;2.17;;;0.60;;
10643;SDS011;5370;50.132;8.626;2023-05-10T13:22:13;2.83;;;0.63;;
10643;SDS011;5370;50.132;8.626;2023-05-10T13:24:39;2.45;;;0.68;;
10643;SDS011;5370;50.132;8.626;2023-05-10T13:27:04;1.67;;;0.60;;
10643;SDS011;5370;50.132;8.626;2023-05-10T13:29:30;0.95;;;0.60;;
10643;SDS011;5370;50.132;8.626;2023-05-10T13:31:55;4.50;;;0.70;;
10643;SDS011;5370;50.132;8.626;2023-05-10T13:34:21;2.35;;;0.43;;
10643;SDS011;5370;50.132;8.626;2023-05-10T13:36:47;1.58;;;0.68;;
10643;SDS011;5370;50.132;8.626;2023-05-10T13:39:13;1.55;;;0.60;;
10643;SDS011;5370;50.132;8.626;2023-05-10T13:41:39;3.00;;;0.60;;
10643;SDS011;5370;50.132;8.626;2023-05-10T13:44:05;2.40;;;0.70;;
10643;SDS011;5370;50.132;8.626;2023-05-10T13:46:30;2.92;;;0.50;;
10643;SDS011;5370;50.132;8.626;2023-05-10T13:48:56;3.25;;;0.75;;
10643;SDS011;5370;50.132;8.626;2023-05-10T13:51:21;0.50;;;0.40;;
10643;SDS011;5370;50.132;8.626;2023-05-10T13:53:47;0.80;;;0.57;;
10643;SDS011;5370;50.132;8.626;2023-05-10T13:56:13;4.15;;;0.77;;
10643;SDS011;5370;50.132;8.626;2023-05-10T13:58:39;1.60;;;0.60;;
10643;SDS011;5370;50.132;8.626;2023-05-10T14:01:04;0.88;;;0.50;;
10643;SDS011;5370;50.132;8.626;2023-05-10T14:03:30;2.40;;;0.85;;
10643;SDS011;5370;50.132;8.626;2023-05-10T14:05:56;2.42;;;0.57;;
10643;SDS011;5370;50.132;8.626;2023-05-10T14:08:21;4.60;;;0.73;;
10643;SDS011;5370;50.132;8.626;2023-05-10T14:10:47;1.75;;;0.60;;
10643;SDS011;5370;50.132;8.626;2023-05-10T14:13:13;1.77;;;0.60;;
10643;SDS011;5370;50.132;8.626;2023-05-10T14:15:40;4.75;;;0.55;;
10643;SDS011;5370;50.132;8.626;2023-05-10T14:18:05;1.30;;;0.85;;
10643;SDS011;5370;50.132;8.626;2023-05-10T14:20:31;1.73;;;0.50;;
10643;SDS011;5370;50.132;8.626;2023-05-10T14:22:58;0.65;;;0.65;;
10643;SDS011;5370;50.132;8.626;2023-05-10T14:25:24;2.78;;;0.80;;
10643;SDS011;5370;50.132;8.626;2023-05-10T14:27:50;14.60;;;10.98;;
10643;SDS011;5370;50.132;8.626;2023-05-10T14:30:16;23.55;;;17.83;;
10643;SDS011;5370;50.132;8.626;2023-05-10T14:32:41;27.90;;;19.92;;
10643;SDS011;5370;50.132;8.626;2023-05-10T14:35:07;3.55;;;1.55;;
10643;SDS011;5370;50.132;8.626;2023-05-10T14:37:33;1.30;;;0.60;;
10643;SDS011;5370;50.132;8.626;2023-05-10T14:39:59;2.33;;;0.63;;
10643;SDS011;5370;50.132;8.626;2023-05-10T14:42:24;1.10;;;0.60;;
10643;SDS011;5370;50.132;8.626;2023-05-10T14:44:50;2.15;;;0.88;;
10643;SDS011;5370;50.132;8.626;2023-05-10T14:47:16;2.67;;;1.15;;
10643;SDS011;5370;50.132;8.626;2023-05-10T14:49:41;2.40;;;0.98;;
10643;SDS011;5370;50.132;8.626;2023-05-10T14:52:07;0.45;;;0.40;;
10643;SDS011;5370;50.132;8.626;2023-05-10T14:54:33;1.35;;;0.63;;
10643;SDS011;5370;50.132;8.626;2023-05-10T14:56:58;2.92;;;0.68;;
10643;SDS011;5370;50.132;8.626;2023-05-10T14:59:25;4.10;;;0.85;;
10643;SDS011;5370;50.132;8.626;2023-05-10T15:01:50;4.03;;;0.65;;
10643;SDS011;5370;50.132;8.626;2023-05-10T15:04:16;1.17;;;0.68;;
10643;SDS011;5370;50.132;8.626;2023-05-10T15:06:41;1.13;;;0.50;;
10643;SDS011;5370;50.132;8.626;2023-05-10T15:09:07;0.85;;;0.68;;
10643;SDS011;5370;50.132;8.626;2023-05-10T15:11:33;2.72;;;0.70;;
10643;SDS011;5370;50.132;8.626;2023-05-10T15:13:59;0.90;;;0.63;;
10643;SDS011;5370;50.132;8.626;2023-05-10T15:16:25;2.42;;;0.70;;
10643;SDS011;5370;50.132;8.626;2023-05-10T15:18:51;3.60;;;0.60;;
10643;SDS011;5370;50.132;8.626;2023-05-10T15:21:16;2.05;;;0.70;;
10643;SDS011;5370;50.132;8.626;2023-05-10T15:23:42;1.40;;;0.43;;
10643;SDS011;5370;50.132;8.626;2023-05-10T15:26:07;0.60;;;0.57;;
10643;SDS011;5370;50.132;8.626;2023-05-10T15:28:33;2.30;;;0.50;;
10643;SDS011;5370;50.132;8.626;2023-05-10T15:30:58;2.00;;;0.55;;
10643;SDS011;5370;50.132;8.626;2023-05-10T15:33:25;2.28;;;0.40;;
10643;SDS011;5370;50.132;8.626;2023-05-10T15:35:52;1.33;;;0.75;;